Flight Track Log - Related Links

Times and Time Zones

All times are in EDT time to prevent confusion due to time zone crossing. See the DAL268 flight status page for this flight to view local times or setup timezone preferences in your user account.

Time Position Orientation Groundspeed Altitude Reporting Facility
EDT Latitude Longitude Course Direction KTS MPH feet Rate Location/Type
Wed 11:58:08 PM 40.6370 -73.7800 North  Level FlightAware ADS-B
Thu 12:02:00 AM 40.5100 -73.4033 123° Southeast  Level FlightAware Approximate
Thu 12:03:00 AM 40.4609 -73.2380 105° East  Level FlightAware Approximate
Thu 12:04:00 AM 40.4035 -73.0748 119° Southeast  Level FlightAware Approximate
Thu 12:05:00 AM 40.3993 -72.9028 72° East  Level FlightAware Approximate
Thu 12:06:00 AM 40.4333 -72.7282 90° East  Level FlightAware Approximate
Thu 12:07:00 AM 40.4706 -72.5556 79° East  Level FlightAware Approximate
Thu 12:14:00 AM 40.5000 -73.3830 90° East  Level FlightAware Approximate
Thu 12:15:00 AM 40.4563 -73.2147 105° East  Level FlightAware Approximate
Thu 12:16:00 AM 40.3955 -73.0530 114° Southeast  Level FlightAware Approximate
Thu 12:17:00 AM 40.4041 -72.8796 75° East  Level FlightAware Approximate
Thu 12:18:00 AM 40.4333 -72.7041 90° East  Level FlightAware Approximate
Thu 12:19:00 AM 40.4740 -72.5319 79° East  Level FlightAware Approximate
Thu 12:20:00 AM 40.5167 -72.3625 90° East  Level FlightAware Approximate
Thu 12:21:00 AM 40.5489 -72.1880 72° East  Level FlightAware Approximate
Thu 12:22:00 AM 40.5920 -72.0155 72° East  Level FlightAware Approximate
Thu 12:23:00 AM 40.6305 -71.8418 66° East  Level FlightAware Approximate
Thu 12:24:00 AM 40.6719 -71.6687 78° East  Level FlightAware Approximate
Thu 12:25:00 AM 40.7000 -71.4909 90° East  Level FlightAware Approximate
Thu 12:26:00 AM 40.7365 -71.3157 74° East  Level FlightAware Approximate
Thu 12:27:00 AM 40.7742 -71.1406 74° East  Level FlightAware Approximate
Thu 12:28:00 AM 40.8117 -70.9654 74° East  Level FlightAware Approximate
Thu 12:28:40 AM 40.6170 -73.7560 136° Southeast 176 203 1,000  Level FlightAware ADS-B
Thu 12:29:00 AM 40.6050 -73.7420 138° Southeast 186 214 1,500 1,091 Climbing FlightAware ADS-B
Thu 12:29:24 AM 40.5880 -73.7210 137° Southeast 215 247 1,800 837 Climbing FlightAware ADS-B
Thu 12:29:43 AM 40.5750 -73.7020 132° Southeast 240 276 2,100 1,111 Climbing FlightAware ADS-B
Thu 12:29:51 AM 40.5700 -73.6910 121° Southeast 251 289 2,300 1,200 Climbing FlightAware ADS-B
Thu 12:30:03 AM 40.5640 -73.6750 116° Southeast 267 307 2,500 1,500 Climbing FlightAware ADS-B
Thu 12:30:23 AM 40.5560 -73.6410 107° East 290 334 3,100 2,167 Climbing FlightAware ADS-B
Thu 12:30:39 AM 40.5490 -73.6130 108° East 295 339 3,800 2,595 Climbing FlightAware ADS-B
Thu 12:31:00 AM 40.5400 -73.5770 108° East 300 345 4,700 2,667 Climbing FlightAware ADS-B
Thu 12:31:15 AM 40.5332 -73.5508 109° East 303 349 5,400 3,000 Climbing FlightAware ADS-B
Thu 12:31:28 AM 40.5273 -73.5281 109° East 304 350 6,100 2,690 Climbing FlightAware ADS-B
Thu 12:31:44 AM 40.5205 -73.4996 107° East 311 358 6,700 2,323 Climbing FlightAware ADS-B
Thu 12:31:59 AM 40.5132 -73.4724 109° East 316 364 7,300 2,516 Climbing FlightAware ADS-B
Thu 12:32:15 AM 40.5056 -73.4434 109° East 317 365 8,000 2,438 Climbing FlightAware ADS-B
Thu 12:32:31 AM 40.4978 -73.4139 109° East 323 372 8,600 2,323 Climbing FlightAware ADS-B
Thu 12:32:46 AM 40.4905 -73.3859 109° East 327 376 9,200 2,516 Climbing FlightAware ADS-B
Thu 12:33:02 AM 40.4830 -73.3556 108° East 329 379 9,900 1,532 Climbing FlightAware ADS-B
Thu 12:33:33 AM 40.4673 -73.2942 109° East 360 414 10,400 984 Climbing FlightAware ADS-B
Thu 12:34:03 AM 40.4507 -73.2286 108° East 394 453 10,900 1,690 Climbing FlightAware ADS-B
Thu 12:34:44 AM 40.4260 -73.1330 109° East 407 468 12,400 1,969 Climbing FlightAware ADS-B
Thu 12:35:07 AM 40.4109 -73.0780 110° East 424 488 13,000 2,073 Climbing FlightAware ADS-B
Thu 12:35:39 AM 40.3931 -72.9994 107° East 429 494 14,300 2,500 Climbing FlightAware ADS-B
Thu 12:35:43 AM 40.3926 -72.9866 93° East 431 496 14,500 2,000 Climbing FlightAware ADS-B
Thu 12:35:51 AM 40.3930 -72.9682 88° East 433 498 14,700 1,826 Climbing FlightAware ADS-B
Thu 12:36:06 AM 40.3981 -72.9290 80° East 437 503 15,200 2,133 Climbing FlightAware ADS-B
Thu 12:36:36 AM 40.4159 -72.8522 73° East 444 511 16,300 2,055 Climbing FlightAware ADS-B
Thu 12:37:19 AM 40.4417 -72.7409 73° East 450 518 17,700 1,865 Climbing FlightAware ADS-B
Thu 12:37:50 AM 40.4603 -72.6585 73° East 461 531 18,600 1,672 Climbing FlightAware ADS-B
Thu 12:38:20 AM 40.4784 -72.5775 74° East 469 540 19,400 1,684 Climbing FlightAware ADS-B
Thu 12:38:47 AM 40.4961 -72.5033 73° East 476 548 20,200 1,655 Climbing FlightAware ADS-B
Thu 12:39:18 AM 40.5201 -72.4191 69° East 482 555 21,000 1,594 Climbing FlightAware ADS-B
Thu 12:39:51 AM 40.5490 -72.3300 67° East 487 560 21,900 1,647 Climbing FlightAware ADS-B
Thu 12:40:09 AM 40.5657 -72.2806 66° East 488 562 22,400 1,552 Climbing FlightAware ADS-B
Thu 12:40:49 AM 40.6030 -72.1712 66° East 497 572 23,400 1,417 Climbing FlightAware ADS-B
Thu 12:41:21 AM 40.6337 -72.0828 65° Northeast 504 580 24,100 1,258 Climbing FlightAware ADS-B
Thu 12:41:51 AM 40.6630 -71.9955 66° East 510 587 24,700 1,180 Climbing FlightAware ADS-B
Thu 12:42:22 AM 40.6920 -71.9103 66° East 515 593 25,300 1,286 Climbing FlightAware ADS-B
Thu 12:43:01 AM 40.7305 -71.7975 66° East 520 598 26,200 1,304 Climbing FlightAware ADS-B
Thu 12:43:31 AM 40.7590 -71.7130 66° East 524 603 26,800 1,161 Climbing FlightAware ADS-B
Thu 12:44:03 AM 40.7910 -71.6160 66° East 529 609 27,400 514 Climbing FlightAware ADS-B
Thu 12:44:41 AM 40.8230 -71.5200 66° East 529 609 27,400  Level FlightAware ADS-B
Thu 12:45:17 AM 40.8530 -71.4300 66° East 529 609 27,400 1,528 Level FlightAware ADS-B
Thu 12:45:57 AM 40.9000 -71.2850 67° East 29,400 2,314 Climbing FlightAware ADS-B
Thu 12:46:27 AM 40.9310 -71.1880 67° East 540 621 30,100 1,286 Climbing FlightAware ADS-B
Thu 12:47:07 AM 40.9720 -71.0640 66° East 540 621 30,900 1,286 Climbing FlightAware ADS-B
Thu 12:47:23 AM 40.9891 -71.0129 66° East 540 621 31,300 1,309 Climbing FlightAware ADS-B
Thu 12:48:02 AM 41.0270 -70.8980 66° East 538 619 32,100 1,054 Climbing FlightAware ADS-B
Thu 12:48:37 AM 41.0610 -70.7910 67° East 539 620 32,600 435 Climbing FlightAware ADS-B
Thu 12:49:11 AM 41.0880 -70.7070 67° East 539 620 32,600 286 Level FlightAware ADS-B
Thu 12:50:01 AM 41.1360 -70.5570 67° East 539 620 33,000 279 Climbing FlightAware ADS-B
Thu 12:50:37 AM 41.1660 -70.4640 67° East 539 620 33,000  Level FlightAware ADS-B
Thu 12:51:11 AM 41.1940 -70.3750 67° East 539 620 33,000  Level FlightAware ADS-B
Thu 12:51:48 AM 41.2250 -70.2790 67° East 539 620 33,000 -81 Level FlightAware ADS-B
Thu 12:52:25 AM 41.2742 -70.1228 67° East 539 620 32,900 -62 Descending Boston Center
Thu 12:53:25 AM 41.3264 -69.9356 70° East 539 620 32,900  Level Boston Center
Thu 12:54:24 AM 41.3847 -69.7508 67° East 539 620 32,900 13 Level Boston Center
Thu 01:00:30 AM 41.7330 -68.6190 67° East 33,000 15 Climbing FlightAware ADS-B
Thu 01:01:04 AM 41.7560 -68.5440 68° East 528 608 33,000  Level FlightAware ADS-B
Thu 01:01:57 AM 41.8050 -68.3760 69° East 528 608 33,000  Level FlightAware ADS-B
Thu 01:02:41 AM 41.8440 -68.2420 69° East 528 608 33,000  Level FlightAware ADS-B
Thu 01:03:25 AM 41.8840 -68.1040 69° East 529 609 33,000  Level FlightAware ADS-B
Thu 01:04:01 AM 41.9120 -68.0110 68° East 529 609 33,000  Level FlightAware ADS-B
Thu 01:04:37 AM 41.9400 -67.9180 68° East 529 609 33,000  Level FlightAware ADS-B
Thu 01:05:16 AM 41.9880 -67.7450 69° East 524 603 33,000  Level FlightAware ADS-B
Thu 01:06:10 AM 42.0300 -67.5970 69° East 520 598 33,000  Level FlightAware ADS-B
Thu 01:06:41 AM 42.0600 -67.4900 69° East 519 597 33,000  Level FlightAware ADS-B
Thu 01:07:23 AM 42.0880 -67.3880 70° East 519 597 33,000  Level FlightAware ADS-B
Thu 01:08:18 AM 42.1400 -67.2080 69° East 518 596 33,000  Level FlightAware ADS-B
Thu 01:08:54 AM 42.1650 -67.1150 70° East 518 596 33,000  Level FlightAware ADS-B
Thu 01:09:28 AM 42.1880 -67.0270 71° East 518 596 33,000  Level FlightAware ADS-B
Thu 01:10:04 AM 42.2130 -66.9340 70° East 518 596 33,000  Level FlightAware ADS-B
Thu 01:10:40 AM 42.2380 -66.8410 70° East 518 596 33,000  Level FlightAware ADS-B
Thu 01:11:16 AM 42.2630 -66.7480 70° East 518 596 33,000  Level FlightAware ADS-B
Thu 01:11:54 AM 42.3320 -66.5690 62° Northeast 520 598 33,000  Level FlightAware ADS-B
Thu 01:12:28 AM 42.3590 -66.4830 67° East 520 598 33,000  Level FlightAware ADS-B
Thu 01:12:59 AM 42.3980 -66.3550 68° East 518 596 33,000  Level FlightAware ADS-B
Thu 01:13:34 AM 42.4280 -66.2560 68° East 518 596 33,000  Level FlightAware ADS-B
Thu 01:14:14 AM 42.4580 -66.1540 68° East 518 596 33,000  Level FlightAware ADS-B
Thu 01:14:55 AM 42.4970 -66.0270 67° East 519 597 33,000  Level FlightAware ADS-B
Thu 01:15:35 AM 42.5380 -65.8950 67° East 521 600 33,000  Level FlightAware ADS-B
Thu 01:16:11 AM 42.5650 -65.8020 68° East 521 600 33,000  Level FlightAware ADS-B
Thu 01:16:39 AM 42.6000 -65.6870 68° East 520 598 33,000  Level FlightAware ADS-B
Thu 01:17:24 AM 42.6390 -65.5600 67° East 520 598 33,000  Level FlightAware ADS-B
Thu 01:17:59 AM 42.6700 -65.4550 68° East 520 598 33,000  Level FlightAware ADS-B
Thu 01:18:34 AM 42.7000 -65.3520 68° East 517 595 33,000  Level FlightAware ADS-B
Thu 01:19:09 AM 42.7350 -65.2380 67° East 516 594 33,000  Level FlightAware ADS-B
Thu 01:19:44 AM 42.7640 -65.1350 69° East 515 593 33,000  Level FlightAware ADS-B
Thu 01:20:34 AM 42.8080 -64.9850 68° East 513 590 33,000  Level FlightAware ADS-B
Thu 01:21:08 AM 42.8380 -64.8840 68° East 510 587 33,000  Level FlightAware ADS-B
Thu 01:21:43 AM 42.8680 -64.7790 69° East 509 586 33,000  Level FlightAware ADS-B
Thu 01:22:21 AM 42.8990 -64.6720 68° East 507 583 33,000  Level FlightAware ADS-B
Thu 01:23:08 AM 42.9420 -64.5210 69° East 504 580 33,000  Level FlightAware ADS-B
Thu 01:23:39 AM 42.9670 -64.4350 68° East 504 580 33,000  Level FlightAware ADS-B
Thu 01:24:19 AM 43.0020 -64.3140 68° East 503 579 33,000  Level FlightAware ADS-B
Thu 01:24:59 AM 43.0350 -64.1960 69° East 500 575 33,000  Level FlightAware ADS-B
Thu 01:25:34 AM 43.0630 -64.0960 69° East 501 577 33,000  Level FlightAware ADS-B
Thu 01:26:18 AM 43.1020 -63.9560 69° East 503 579 33,000  Level FlightAware ADS-B
Thu 01:26:54 AM 43.1280 -63.8610 69° East 504 580 33,000  Level FlightAware ADS-B
Thu 01:27:30 AM 43.1580 -63.7570 68° East 507 583 33,000  Level FlightAware ADS-B
Thu 01:28:04 AM 43.1880 -63.6460 70° East 508 585 33,000  Level FlightAware ADS-B
Thu 01:28:40 AM 43.2190 -63.5350 69° East 507 583 33,000  Level FlightAware ADS-B
Thu 01:29:15 AM 43.2460 -63.4380 69° East 506 582 33,000  Level FlightAware ADS-B
Thu 01:30:01 AM 43.2850 -63.2950 69° East 506 582 33,000  Level FlightAware ADS-B
Thu 01:30:36 AM 43.3150 -63.1860 69° East 506 582 33,000  Level FlightAware ADS-B
Thu 01:31:10 AM 43.3350 -63.1080 71° East 507 583 33,000  Level FlightAware ADS-B
Thu 01:31:43 AM 43.3670 -62.9930 69° East 508 585 33,000  Level FlightAware ADS-B
Thu 01:32:18 AM 43.3970 -62.8810 70° East 509 586 33,000  Level FlightAware ADS-B
Thu 01:32:53 AM 43.4250 -62.7750 70° East 510 587 33,000  Level FlightAware ADS-B
Thu 01:33:28 AM 43.4540 -62.6680 69° East 510 587 33,000  Level FlightAware ADS-B
Thu 01:34:04 AM 43.4830 -62.5560 70° East 509 586 33,000  Level FlightAware ADS-B
Thu 01:34:39 AM 43.5090 -62.4620 69° East 507 583 33,000  Level FlightAware ADS-B
Thu 01:35:15 AM 43.5400 -62.3440 70° East 507 583 33,000  Level FlightAware ADS-B
Thu 01:35:50 AM 43.5670 -62.2380 71° East 507 583 33,000  Level FlightAware ADS-B
Thu 01:36:26 AM 43.5950 -62.1310 70° East 507 583 33,000  Level FlightAware ADS-B
Thu 01:37:05 AM 43.6260 -62.0120 70° East 508 585 33,000  Level FlightAware ADS-B
Thu 01:37:45 AM 43.6580 -61.8870 70° East 509 586 33,000  Level FlightAware ADS-B
Thu 01:38:19 AM 43.6850 -61.7820 70° East 510 587 33,000  Level FlightAware ADS-B
Thu 01:38:59 AM 43.7110 -61.6770 71° East 510 587 33,000  Level FlightAware ADS-B
Thu 01:39:35 AM 43.7340 -61.5830 71° East 510 587 33,000  Level FlightAware ADS-B
Thu 01:40:07 AM 43.7700 -61.4470 70° East 512 589 33,000  Level FlightAware ADS-B
Thu 01:40:47 AM 43.7960 -61.3410 71° East 512 589 33,000  Level FlightAware ADS-B
Thu 01:41:23 AM 43.8200 -61.2460 71° East 512 589 33,000  Level FlightAware ADS-B
Thu 01:41:59 AM 43.8430 -61.1510 71° East 512 589 33,000  Level FlightAware ADS-B
Thu 01:42:35 AM 43.8670 -61.0560 71° East 512 589 33,000  Level FlightAware ADS-B
Thu 01:43:11 AM 43.8910 -60.9610 71° East 512 589 33,000  Level FlightAware ADS-B
Thu 01:43:47 AM 43.9140 -60.8660 71° East 512 589 33,000  Level FlightAware ADS-B
Thu 01:44:23 AM 43.9380 -60.7710 71° East 512 589 33,000  Level FlightAware ADS-B
Thu 01:45:01 AM 43.9630 -60.6700 71° East 512 589 33,000  Level FlightAware ADS-B
Thu 01:45:37 AM 43.9860 -60.5750 71° East 512 589 33,000  Level FlightAware ADS-B
Thu 01:46:13 AM 44.0100 -60.4800 71° East 512 589 33,000  Level FlightAware ADS-B
Thu 01:46:43 AM 44.0730 -60.2140 72° East 512 589 33,000  Level FlightAware ADS-B
Thu 01:47:25 AM 44.1010 -60.1010 71° East 512 589 33,000  Level FlightAware ADS-B
Thu 01:47:59 AM 44.1290 -59.9760 73° East 513 590 33,000  Level FlightAware ADS-B
Thu 01:48:36 AM 44.1560 -59.8600 72° East 514 592 33,000  Level FlightAware ADS-B
Thu 01:49:11 AM 44.1820 -59.7530 71° East 515 593 33,000 82 Level FlightAware ADS-B
Thu 01:49:49 AM 44.2100 -59.6330 72° East 518 596 33,100 529 Climbing FlightAware ADS-B
Thu 01:50:19 AM 44.2320 -59.5380 72° East 518 596 33,600 1,182 Climbing FlightAware ADS-B
Thu 01:50:55 AM 44.2580 -59.4240 72° East 512 589 34,400 1,167 Climbing FlightAware ADS-B
Thu 01:51:31 AM 44.2840 -59.3080 73° East 510 587 35,000 456 Climbing FlightAware ADS-B
Thu 01:52:14 AM 44.3150 -59.1760 72° East 511 588 35,000  Level FlightAware ADS-B
Thu 01:52:48 AM 44.3390 -59.0670 73° East 509 586 35,000  Level FlightAware ADS-B
Thu 01:53:24 AM 44.3650 -58.9570 72° East 509 586 35,000  Level FlightAware ADS-B
Thu 01:54:00 AM 44.3900 -58.8440 73° East 510 587 35,000  Level FlightAware ADS-B
Thu 01:54:35 AM 44.4140 -58.7340 73° East 508 585 35,000  Level FlightAware ADS-B
Thu 01:55:08 AM 44.4370 -58.6310 73° East 508 585 35,000  Level FlightAware ADS-B
Thu 01:55:44 AM 44.4630 -58.5150 73° East 508 585 35,000  Level FlightAware ADS-B
Thu 01:56:20 AM 44.4880 -58.4020 73° East 508 585 35,000  Level FlightAware ADS-B
Thu 01:56:54 AM 44.5120 -58.2950 73° East 508 585 35,000  Level FlightAware ADS-B
Thu 01:57:30 AM 44.5360 -58.1810 74° East 508 585 35,000  Level FlightAware ADS-B
Thu 01:58:00 AM 44.5570 -58.0870 73° East 508 585 35,000  Level FlightAware ADS-B
Thu 01:58:39 AM 44.5820 -57.9670 74° East 509 586 35,000  Level FlightAware ADS-B
Thu 01:59:32 AM 44.6160 -57.8130 73° East 510 587 35,000  Level FlightAware ADS-B
Thu 02:00:12 AM 44.6460 -57.6720 73° East 513 590 35,000  Level FlightAware ADS-B
Thu 02:00:58 AM 44.6770 -57.5250 73° East 513 590 35,000  Level FlightAware ADS-B
Thu 02:01:33 AM 44.6980 -57.4230 74° East 513 590 35,000  Level FlightAware ADS-B
Thu 02:02:15 AM 44.7270 -57.2820 74° East 513 590 35,000  Level FlightAware ADS-B
Thu 02:02:52 AM 44.7530 -57.1610 73° East 514 592 35,000  Level FlightAware ADS-B
Thu 02:03:22 AM 44.7730 -57.0610 74° East 515 593 35,000  Level FlightAware ADS-B
Thu 02:04:02 AM 44.7970 -56.9520 73° East 515 593 35,000  Level FlightAware ADS-B
Thu 02:04:38 AM 44.8180 -56.8530 73° East 515 593 35,000  Level FlightAware ADS-B
Thu 02:05:13 AM 44.8460 -56.7060 75° East 518 596 35,000  Level FlightAware ADS-B
Thu 02:05:44 AM 44.8670 -56.6050 74° East 518 596 35,000  Level FlightAware ADS-B
Thu 02:06:18 AM 44.8880 -56.4950 75° East 519 597 35,000  Level FlightAware ADS-B
Thu 02:06:58 AM 44.9110 -56.3840 74° East 519 597 35,000  Level FlightAware ADS-B
Thu 02:07:35 AM 44.9320 -56.2810 74° East 519 597 35,000  Level FlightAware ADS-B
Thu 02:08:11 AM 44.9520 -56.1810 74° East 519 597 35,000  Level FlightAware ADS-B
Thu 02:08:47 AM 44.9720 -56.0820 74° East 519 597 35,000  Level FlightAware ADS-B
Thu 02:09:24 AM 44.9930 -55.9790 74° East 519 597 35,000  Level FlightAware ADS-B
Thu 02:10:01 AM 45.0140 -55.8760 74° East 519 597 35,000  Level FlightAware ADS-B
Thu 02:10:37 AM 45.0340 -55.7760 74° East 519 597 35,000  Level FlightAware ADS-B
Thu 02:11:13 AM 45.0540 -55.6760 74° East 519 597 35,000  Level FlightAware ADS-B
Thu 02:11:49 AM 45.0740 -55.5760 74° East 519 597 35,000  Level FlightAware ADS-B
Thu 02:12:25 AM 45.0950 -55.4760 73° East 519 597 35,000  Level FlightAware ADS-B
Thu 02:13:01 AM 45.1150 -55.3760 74° East 519 597 35,000  Level FlightAware ADS-B
Thu 02:13:33 AM 45.1720 -55.0460 76° East 545 627 35,000  Level FlightAware ADS-B
Thu 02:14:14 AM 45.1940 -54.9260 75° East 545 627 35,000  Level FlightAware ADS-B
Thu 02:14:50 AM 45.2140 -54.8200 75° East 545 627 35,000  Level FlightAware ADS-B
Thu 02:15:26 AM 45.2340 -54.7140 75° East 545 627 35,000  Level FlightAware ADS-B
Thu 02:16:08 AM 45.2740 -54.4960 75° East 563 648 35,000  Level FlightAware ADS-B
Thu 02:16:46 AM 45.2990 -54.3590 75° East 567 652 35,000  Level FlightAware ADS-B
Thu 02:17:21 AM 45.3220 -54.2330 75° East 571 657 35,000  Level FlightAware ADS-B
Thu 02:18:11 AM 45.3510 -54.0720 76° East 573 659 35,000  Level FlightAware ADS-B
Thu 02:18:47 AM 45.3720 -53.9600 75° East 573 659 35,000  Level FlightAware ADS-B
Thu 02:19:23 AM 45.3930 -53.8490 75° East 573 659 35,000  Level FlightAware ADS-B
Thu 02:19:59 AM 45.4140 -53.7370 75° East 573 659 35,000  Level FlightAware ADS-B
Thu 02:20:35 AM 45.4350 -53.6260 75° East 573 659 35,000  Level FlightAware ADS-B
Thu 02:21:11 AM 45.4560 -53.5140 75° East 573 659 35,000  Level FlightAware ADS-B
Thu 02:21:48 AM 45.4780 -53.3990 75° East 573 659 35,000  Level FlightAware ADS-B
Thu 02:22:24 AM 45.4990 -53.2870 75° East 573 659 35,000  Level FlightAware ADS-B
Thu 02:23:00 AM 45.5200 -53.1760 75° East 573 659 35,000  Level FlightAware ADS-B
Thu 02:23:36 AM 45.5410 -53.0640 75° East 573 659 35,000  Level FlightAware ADS-B
Thu 02:24:12 AM 45.5620 -52.9520 75° East 573 659 35,000  Level FlightAware ADS-B
Thu 02:24:48 AM 45.5830 -52.8400 75° East 573 659 35,000  Level FlightAware ADS-B
Thu 02:25:36 AM 45.6110 -52.6910 75° East 573 659 35,000  Level FlightAware ADS-B
Thu 02:26:12 AM 45.6320 -52.5780 75° East 573 659 35,000  Level FlightAware ADS-B
Thu 02:26:48 AM 45.6530 -52.4660 75° East 573 659 35,000  Level FlightAware ADS-B
Thu 02:27:25 AM 45.6740 -52.3510 75° East 573 659 35,000  Level FlightAware ADS-B
Thu 02:28:13 AM 45.7167 -51.7667 75° East 580 667 35,000  Level Moncton Center
Thu 02:29:13 AM 45.7333 -51.5667 83° East 570 656 35,000  Level Moncton Center
Thu 02:30:13 AM 45.7833 -51.3167 74° East 580 667 35,000  Level Moncton Center
Thu 02:31:13 AM 45.8167 -51.1000 77° East 570 656 35,000  Level Moncton Center
Thu 02:31:48 AM 45.8333 -51.0000 77° East 570 656 35,000  Level Gander Center
Thu 02:32:48 AM 45.8667 -50.7500 79° East 570 656 35,000  Level Gander Center
Thu 02:33:48 AM 45.9000 -50.5167 78° East 570 656 35,000  Level Gander Center
Thu 02:34:48 AM 45.9333 -50.3000 77° East 570 656 35,000  Level Gander Center
Thu 02:35:48 AM 45.9500 -50.0667 84° East 570 656 35,000  Level Gander Center
Thu 02:36:48 AM 46.0000 -49.8667 70° East 570 656 35,000  Level Gander Center
Thu 02:37:48 AM 46.0833 -49.6667 59° Northeast 580 667 35,000  Level Gander Center
Thu 02:38:00 AM 46.0000 -50.0000 62° Northeast 590 679 35,000  Level ETMS Enhanced Traffic Management System
Thu 02:38:48 AM 46.1500 -49.4500 62° Northeast 590 679 35,000  Level Gander Center
Thu 02:39:48 AM 46.2333 -49.2333 61° Northeast 590 679 35,000  Level Gander Center
Thu 02:40:48 AM 46.3167 -49.0167 61° Northeast 590 679 35,000  Level Gander Center
Thu 02:41:48 AM 46.3833 -48.8167 64° Northeast 600 690 35,000  Level Gander Center
Thu 02:42:48 AM 46.4500 -48.6000 66° East 600 690 35,000  Level Gander Center
Thu 02:43:48 AM 46.5000 -48.3833 71° East 590 679 35,000  Level Gander Center
Thu 02:44:48 AM 46.5833 -48.1500 62° Northeast 600 690 35,000  Level Gander Center
Thu 02:45:48 AM 46.6333 -47.9333 71° East 590 679 35,000  Level Gander Center
Thu 02:46:48 AM 46.7167 -47.7167 61° Northeast 610 702 35,000  Level Gander Center
Thu 02:47:48 AM 46.7833 -47.5000 66° East 590 679 35,000  Level Gander Center
Thu 02:48:48 AM 46.8667 -47.2833 61° Northeast 600 690 35,000  Level Gander Center
Thu 02:52:00 AM 46.9493 -47.0697 60° Northeast  Level FlightAware Approximate
Thu 02:59:00 AM 47.3983 -45.7893 65° Northeast  Level FlightAware Approximate
Thu 03:00:00 AM 47.4566 -45.6015 65° Northeast  Level FlightAware Approximate
Thu 03:01:00 AM 47.5145 -45.4133 65° Northeast  Level FlightAware Approximate
Thu 03:02:00 AM 47.5721 -45.2246 66° East  Level FlightAware Approximate
Thu 03:03:00 AM 47.6293 -45.0355 66° East  Level FlightAware Approximate
Thu 03:04:00 AM 47.6863 -44.8460 66° East  Level FlightAware Approximate
Thu 03:05:00 AM 47.7430 -44.6561 66° East  Level FlightAware Approximate
Thu 03:06:00 AM 47.7993 -44.4658 66° East  Level FlightAware Approximate
Thu 03:07:00 AM 47.8554 -44.2751 66° East  Level FlightAware Approximate
Thu 03:08:00 AM 47.9111 -44.0840 66° East  Level FlightAware Approximate
Thu 03:09:00 AM 47.9665 -43.8924 67° East  Level FlightAware Approximate
Thu 03:10:00 AM 48.0216 -43.7005 67° East  Level FlightAware Approximate
Thu 03:11:00 AM 48.0763 -43.5081 67° East  Level FlightAware Approximate
Thu 03:12:00 AM 48.1308 -43.3153 67° East  Level FlightAware Approximate
Thu 03:13:00 AM 48.1849 -43.1221 67° East  Level FlightAware Approximate
Thu 03:14:00 AM 48.2387 -42.9285 67° East  Level FlightAware Approximate
Thu 03:15:00 AM 48.2921 -42.7345 67° East  Level FlightAware Approximate
Thu 03:16:00 AM 48.3453 -42.5401 68° East  Level FlightAware Approximate
Thu 03:17:00 AM 48.3981 -42.3453 68° East  Level FlightAware Approximate
Thu 03:18:00 AM 48.4506 -42.1501 68° East  Level FlightAware Approximate
Thu 03:19:00 AM 48.5027 -41.9545 68° East  Level FlightAware Approximate
Thu 03:20:00 AM 48.5545 -41.7585 68° East  Level FlightAware Approximate
Thu 03:21:00 AM 48.6060 -41.5621 68° East  Level FlightAware Approximate
Thu 03:22:00 AM 48.6572 -41.3653 68° East  Level FlightAware Approximate
Thu 03:23:00 AM 48.7080 -41.1681 69° East  Level FlightAware Approximate
Thu 03:24:00 AM 48.7584 -40.9705 69° East  Level FlightAware Approximate
Thu 03:24:00 AM 49.0000 -40.0000 77° East 590 679 35,000  Level ETMS Enhanced Traffic Management System
Thu 03:25:00 AM 48.8086 -40.7724 69° East  Level FlightAware Approximate
Thu 03:26:00 AM 48.8584 -40.5741 69° East  Level FlightAware Approximate
Thu 03:27:00 AM 48.9078 -40.3753 69° East  Level FlightAware Approximate
Thu 03:28:00 AM 48.9570 -40.1761 69° East  Level FlightAware Approximate
Thu 03:29:00 AM 49.0035 -39.9755 78° East  Level FlightAware Approximate
Thu 03:30:00 AM 49.2997 -37.7882 79° East 590 679 35,000  Level FlightAware Transoceanic
Thu 03:31:00 AM 49.3303 -37.5409 79° East 590 679 35,000  Level FlightAware Transoceanic
Thu 03:32:00 AM 49.3605 -37.2932 80° East 590 679 35,000  Level FlightAware Transoceanic
Thu 03:33:00 AM 49.3901 -37.0452 80° East 590 679 35,000  Level FlightAware Transoceanic
Thu 03:34:00 AM 49.4192 -36.7970 80° East 590 679 35,000  Level FlightAware Transoceanic
Thu 03:35:00 AM 49.4477 -36.5484 80° East 590 679 35,000  Level FlightAware Transoceanic
Thu 03:36:00 AM 49.4758 -36.2996 80° East 590 679 35,000  Level FlightAware Transoceanic
Thu 03:37:00 AM 49.5033 -36.0504 80° East 590 679 35,000  Level FlightAware Transoceanic
Thu 03:38:00 AM 49.5302 -35.8010 81° East 590 679 35,000  Level FlightAware Transoceanic
Thu 03:39:00 AM 49.5566 -35.5514 81° East 590 679 35,000  Level FlightAware Transoceanic
Thu 03:40:00 AM 49.5825 -35.3014 81° East 590 679 35,000  Level FlightAware Transoceanic
Thu 03:41:00 AM 49.6078 -35.0512 81° East 590 679 35,000  Level FlightAware Transoceanic
Thu 03:42:00 AM 49.6326 -34.8008 81° East 590 679 35,000  Level FlightAware Transoceanic
Thu 03:43:00 AM 49.6569 -34.5500 82° East 590 679 35,000  Level FlightAware Transoceanic
Thu 03:44:00 AM 49.6806 -34.2991 82° East 590 679 35,000  Level FlightAware Transoceanic
Thu 03:45:00 AM 49.7038 -34.0479 82° East 590 679 35,000  Level FlightAware Transoceanic
Thu 03:46:00 AM 49.7264 -33.7964 82° East 590 679 35,000  Level FlightAware Transoceanic
Thu 03:47:00 AM 49.7485 -33.5448 82° East 590 679 35,000  Level FlightAware Transoceanic
Thu 03:48:00 AM 49.7700 -33.2929 83° East 590 679 35,000  Level FlightAware Transoceanic
Thu 03:49:00 AM 49.7910 -33.0407 83° East 590 679 35,000  Level FlightAware Transoceanic
Thu 03:50:00 AM 49.8115 -32.7884 83° East 590 679 35,000  Level FlightAware Transoceanic
Thu 03:51:00 AM 49.8314 -32.5359 83° East 590 679 35,000  Level FlightAware Transoceanic
Thu 03:52:00 AM 49.8507 -32.2831 83° East 590 679 35,000  Level FlightAware Transoceanic
Thu 03:53:00 AM 49.8695 -32.0301 84° East 590 679 35,000  Level FlightAware Transoceanic
Thu 03:54:00 AM 49.8878 -31.7770 84° East 590 679 35,000  Level FlightAware Transoceanic
Thu 03:55:00 AM 49.9054 -31.5237 84° East 590 679 35,000  Level FlightAware Transoceanic
Thu 03:56:00 AM 49.9226 -31.2701 84° East 590 679 35,000  Level FlightAware Transoceanic
Thu 03:57:00 AM 49.9392 -31.0164 84° East 590 679 35,000  Level FlightAware Transoceanic
Thu 03:58:00 AM 49.9552 -30.7626 84° East 590 679 35,000  Level FlightAware Transoceanic
Thu 03:59:00 AM 49.9707 -30.5085 85° East 590 679 35,000  Level FlightAware Transoceanic
Thu 04:00:00 AM 49.9856 -30.2544 85° East 590 679 35,000  Level FlightAware Transoceanic
Thu 04:01:00 AM 49.9979 -30.0378 85° East  Level FlightAware Approximate
Thu 04:02:00 AM 50.0098 -29.8211 85° East  Level FlightAware Approximate
Thu 04:03:00 AM 50.0060 -29.8590 86° East  Level FlightAware Approximate
Thu 04:04:00 AM 50.0148 -29.6419 86° East  Level FlightAware Approximate
Thu 04:05:00 AM 50.0232 -29.4248 86° East  Level FlightAware Approximate
Thu 04:05:21 AM 50.0000 -30.0000 86° East 592 681 35,000  Level ETMS Enhanced Traffic Management System
Thu 04:06:00 AM 50.0312 -29.2076 87° East  Level FlightAware Approximate
Thu 04:07:00 AM 50.0389 -28.9903 87° East  Level FlightAware Approximate
Thu 04:08:00 AM 50.0463 -28.7656 87° East  Level FlightAware Approximate
Thu 04:09:00 AM 50.0533 -28.5408 87° East  Level FlightAware Approximate
Thu 04:10:00 AM 50.0599 -28.3159 87° East  Level FlightAware Approximate
Thu 04:11:00 AM 50.0871 -27.1821 88° East 592 681 35,000  Level FlightAware Transoceanic
Thu 04:12:00 AM 50.0916 -26.9255 89° East 592 681 35,000  Level FlightAware Transoceanic
Thu 04:13:00 AM 50.0956 -26.6689 89° East 592 681 35,000  Level FlightAware Transoceanic
Thu 04:14:00 AM 50.0990 -26.4122 89° East 592 681 35,000  Level FlightAware Transoceanic
Thu 04:15:00 AM 50.1018 -26.1555 89° East 592 681 35,000  Level FlightAware Transoceanic
Thu 04:16:00 AM 50.1041 -25.8987 89° East 592 681 35,000  Level FlightAware Transoceanic
Thu 04:17:00 AM 50.1058 -25.6420 90° East 592 681 35,000  Level FlightAware Transoceanic
Thu 04:18:00 AM 50.1069 -25.3852 90° East 592 681 35,000  Level FlightAware Transoceanic
Thu 04:19:00 AM 50.1075 -25.1284 90° East 592 681 35,000  Level FlightAware Transoceanic
Thu 04:20:00 AM 50.1075 -24.8716 90° East 592 681 35,000  Level FlightAware Transoceanic
Thu 04:21:00 AM 50.1069 -24.6148 90° East 592 681 35,000  Level FlightAware Transoceanic
Thu 04:22:00 AM 50.1058 -24.3580 90° East 592 681 35,000  Level FlightAware Transoceanic
Thu 04:23:00 AM 50.1041 -24.1013 91° East 592 681 35,000  Level FlightAware Transoceanic
Thu 04:24:00 AM 50.1018 -23.8445 91° East 592 681 35,000  Level FlightAware Transoceanic
Thu 04:25:00 AM 50.0990 -23.5878 91° East 592 681 35,000  Level FlightAware Transoceanic
Thu 04:26:00 AM 50.0956 -23.3311 91° East 592 681 35,000  Level FlightAware Transoceanic
Thu 04:27:00 AM 50.0916 -23.0745 91° East 592 681 35,000  Level FlightAware Transoceanic
Thu 04:28:00 AM 50.0871 -22.8179 92° East 592 681 35,000  Level FlightAware Transoceanic
Thu 04:29:00 AM 50.0820 -22.5613 92° East 592 681 35,000  Level FlightAware Transoceanic
Thu 04:30:00 AM 50.0763 -22.3048 92° East 592 681 35,000  Level FlightAware Transoceanic
Thu 04:31:00 AM 50.0701 -22.0484 92° East 592 681 35,000  Level FlightAware Transoceanic
Thu 04:32:00 AM 50.0633 -21.7920 92° East 592 681 35,000  Level FlightAware Transoceanic
Thu 04:33:00 AM 50.0560 -21.5358 93° East 592 681 35,000  Level FlightAware Transoceanic
Thu 04:34:00 AM 50.0480 -21.2796 93° East 592 681 35,000  Level FlightAware Transoceanic
Thu 04:35:00 AM 50.0396 -21.0235 93° East 592 681 35,000  Level FlightAware Transoceanic
Thu 04:36:00 AM 50.0305 -20.7674 93° East 592 681 35,000  Level FlightAware Transoceanic
Thu 04:37:00 AM 50.0209 -20.5115 93° East 592 681 35,000  Level FlightAware Transoceanic
Thu 04:38:00 AM 50.0107 -20.2557 94° East 592 681 35,000  Level FlightAware Transoceanic
Thu 04:39:00 AM 50.0013 -20.0313 94° East  Level FlightAware Approximate
Thu 04:40:00 AM 49.9916 -19.8070 94° East  Level FlightAware Approximate
Thu 04:41:00 AM 49.9948 -19.8377 93° East  Level FlightAware Approximate
Thu 04:42:00 AM 49.9871 -19.6129 93° East  Level FlightAware Approximate
Thu 04:43:00 AM 49.9790 -19.3880 93° East  Level FlightAware Approximate
Thu 04:44:00 AM 49.9705 -19.1633 93° East  Level FlightAware Approximate
Thu 04:45:00 AM 49.9616 -18.9387 93° East  Level FlightAware Approximate
Thu 04:46:00 AM 49.9522 -18.7141 94° East  Level FlightAware Approximate
Thu 04:47:00 AM 49.9424 -18.4896 94° East  Level FlightAware Approximate
Thu 04:48:00 AM 49.9322 -18.2652 94° East  Level FlightAware Approximate
Thu 04:49:00 AM 49.9215 -18.0410 94° East  Level FlightAware Approximate
Thu 04:50:00 AM 49.9104 -17.8168 94° East  Level FlightAware Approximate
Thu 04:51:00 AM 49.8988 -17.5927 94° East  Level FlightAware Approximate
Thu 04:52:00 AM 49.8869 -17.3687 95° East  Level FlightAware Approximate
Thu 04:53:00 AM 49.8745 -17.1449 95° East  Level FlightAware Approximate
Thu 04:54:00 AM 49.8616 -16.9212 95° East  Level FlightAware Approximate
Thu 04:55:00 AM 49.8483 -16.6975 95° East  Level FlightAware Approximate
Thu 04:56:00 AM 49.8346 -16.4740 95° East  Level FlightAware Approximate
Thu 04:57:00 AM 49.8205 -16.2507 96° East  Level FlightAware Approximate
Thu 04:58:00 AM 49.8060 -16.0275 96° East  Level FlightAware Approximate
Thu 04:59:00 AM 49.7910 -15.8044 96° East  Level FlightAware Approximate
Thu 05:00:00 AM 49.7756 -15.5814 96° East  Level FlightAware Approximate
Thu 05:01:00 AM 49.7598 -15.3586 96° East  Level FlightAware Approximate
Thu 05:02:00 AM 49.7435 -15.1359 96° East  Level FlightAware Approximate
Thu 05:03:00 AM 49.7266 -14.9135 97° East  Level FlightAware Approximate
Thu 05:04:00 AM 49.7090 -14.6916 97° East  Level FlightAware Approximate
Thu 05:05:00 AM 49.6910 -14.4699 97° East  Level FlightAware Approximate
Thu 05:06:00 AM 49.6726 -14.2483 97° East  Level FlightAware Approximate
Thu 05:07:00 AM 49.6538 -14.0269 97° East  Level FlightAware Approximate
Thu 05:08:00 AM 49.6345 -13.8057 98° East  Level FlightAware Approximate
Thu 05:09:00 AM 49.6148 -13.5847 98° East  Level FlightAware Approximate
Thu 05:10:00 AM 49.5947 -13.3638 98° East  Level FlightAware Approximate
Thu 05:11:00 AM 49.5742 -13.1432 98° East  Level FlightAware Approximate
Thu 05:12:00 AM 49.5533 -12.9227 98° East  Level FlightAware Approximate
Thu 05:13:00 AM 49.5320 -12.7024 98° East  Level FlightAware Approximate
Thu 05:14:00 AM 49.5108 -12.4822 98° East  Level FlightAware Approximate
Thu 05:15:00 AM 49.4892 -12.2622 99° East  Level FlightAware Approximate
Thu 05:16:00 AM 49.4672 -12.0423 99° East  Level FlightAware Approximate
Thu 05:17:00 AM 49.4447 -11.8227 99° East  Level FlightAware Approximate
Thu 05:18:00 AM 49.4218 -11.6032 99° East  Level FlightAware Approximate
Thu 05:19:00 AM 49.3986 -11.3840 99° East  Level FlightAware Approximate
Thu 05:19:21 AM 49.4250 -10.2700 99° East 575 662 35,000  Level FlightAware ADS-B
Thu 05:19:58 AM 49.4070 -10.1420 102° East 575 662 35,000  Level FlightAware ADS-B
Thu 05:20:00 AM 49.3749 -11.1650 99° East  Level FlightAware Approximate
Thu 05:20:37 AM 49.3790 -9.9680 104° East 577 664 35,000  Level FlightAware ADS-B
Thu 05:21:13 AM 49.3570 -9.8250 103° East 576 663 35,000  Level FlightAware ADS-B
Thu 05:21:53 AM 49.3330 -9.6700 103° East 576 663 35,000  Level FlightAware ADS-B
Thu 05:22:35 AM 49.3110 -9.5240 103° East 576 663 35,000  Level FlightAware ADS-B
Thu 05:23:08 AM 49.2870 -9.3740 104° East 576 663 35,000  Level FlightAware ADS-B
Thu 05:23:43 AM 49.2650 -9.2390 104° East 573 659 35,000  Level FlightAware ADS-B
Thu 05:24:22 AM 49.2390 -9.0820 104° East 574 661 35,000  Level FlightAware ADS-B
Thu 05:24:50 AM 49.2210 -8.9710 104° East 573 659 35,000 -103 Level FlightAware ADS-B
Thu 05:25:20 AM 49.2016 -8.8467 104° East 498 573 34,900  Descending FlightAware UK
Thu 05:25:32 AM 49.1940 -8.8020 104° East 573 659 35,000 136 Climbing FlightAware ADS-B
Thu 05:26:04 AM 49.1730 -8.6730 104° East 574 661 35,000  Level FlightAware ADS-B
Thu 05:26:41 AM 49.1500 -8.5360 104° East 574 661 35,000  Level FlightAware ADS-B
Thu 05:27:17 AM 49.1260 -8.3950 105° East 574 661 35,000  Level FlightAware ADS-B
Thu 05:27:49 AM 49.1050 -8.2700 105° East 573 659 35,000 -182 Level FlightAware ADS-B
Thu 05:27:50 AM 49.1047 -8.2602 105° East 500 575 34,900 -194 Descending FlightAware UK
Thu 05:28:20 AM 49.0841 -8.1423 105° East 500 575 34,900 171 Level FlightAware UK
Thu 05:28:25 AM 49.0800 -8.1300 105° East 573 659 35,000 162 Climbing FlightAware ADS-B
Thu 05:28:57 AM 49.0520 -8.0080 109° East 574 661 35,000  Level FlightAware ADS-B
Thu 05:29:37 AM 49.0130 -7.8570 111° Southeast 573 659 35,000  Level FlightAware ADS-B
Thu 05:30:12 AM 48.9780 -7.7230 112° Southeast 574 661 35,000  Level FlightAware ADS-B
Thu 05:30:46 AM 48.9430 -7.5960 113° Southeast 572 658 35,000  Level FlightAware ADS-B
Thu 05:31:20 AM 48.9080 -7.4700 113° Southeast 571 657 35,000 -86 Level FlightAware ADS-B
Thu 05:31:56 AM 48.8705 -7.3335 113° Southeast 500 575 34,900  Descending FlightAware UK
Thu 05:31:56 AM 48.8710 -7.3380 113° Southeast 569 655 35,000  Climbing FlightAware ADS-B
Thu 05:32:26 AM 48.8393 -7.2230 113° Southeast 496 571 34,900  Descending FlightAware UK
Thu 05:32:28 AM 48.8380 -7.2200 113° Southeast 568 654 35,000 146 Climbing FlightAware ADS-B
Thu 05:33:07 AM 48.7990 -7.0810 113° Southeast 568 654 35,000  Level FlightAware ADS-B
Thu 05:33:43 AM 48.7610 -6.9500 114° Southeast 568 654 35,000  Level FlightAware ADS-B
Thu 05:34:15 AM 48.7270 -6.8300 113° Southeast 568 654 35,000  Level FlightAware ADS-B
Thu 05:34:48 AM 48.6940 -6.7130 113° Southeast 568 654 35,000 -83 Level FlightAware ADS-B
Thu 05:35:27 AM 48.6512 -6.5657 113° Southeast 498 573 34,900  Descending FlightAware UK
Thu 05:35:31 AM 48.6480 -6.5570 113° Southeast 568 654 35,000 143 Climbing FlightAware ADS-B
Thu 05:36:09 AM 48.6090 -6.4190 113° Southeast 566 651 35,000  Level FlightAware ADS-B
Thu 05:36:42 AM 48.5730 -6.2960 114° Southeast 566 651 35,000  Level FlightAware ADS-B
Thu 05:37:18 AM 48.5350 -6.1660 114° Southeast 567 652 35,000  Level FlightAware ADS-B
Thu 05:37:54 AM 48.4980 -6.0400 114° Southeast 566 651 35,000 -87 Level FlightAware ADS-B
Thu 05:38:27 AM 48.4609 -5.9151 114° Southeast 498 573 34,900  Descending FlightAware UK
Thu 05:38:28 AM 48.4600 -5.9140 114° Southeast 566 651 35,000 171 Climbing FlightAware ADS-B
Thu 05:39:02 AM 48.4250 -5.7950 114° Southeast 565 650 35,000  Level FlightAware ADS-B
Thu 05:39:38 AM 48.3870 -5.6660 114° Southeast 565 650 35,000  Level FlightAware ADS-B
Thu 05:40:14 AM 48.3470 -5.5340 114° Southeast 566 651 35,000  Level FlightAware ADS-B
Thu 05:40:50 AM 48.3080 -5.4050 114° Southeast 566 651 35,000  Level FlightAware ADS-B
Thu 05:41:22 AM 48.2730 -5.2910 115° Southeast 566 651 35,000  Level FlightAware ADS-B
Thu 05:41:54 AM 48.2400 -5.1800 114° Southeast 565 650 35,000  Level FlightAware ADS-B
Thu 05:42:34 AM 48.1960 -5.0380 115° Southeast 564 649 35,000  Level FlightAware ADS-B
Thu 05:43:06 AM 48.1610 -4.9210 114° Southeast 562 647 35,000  Level FlightAware ADS-B
Thu 05:43:42 AM 48.1210 -4.7940 115° Southeast 561 646 35,000  Level FlightAware ADS-B
Thu 05:44:18 AM 48.0810 -4.6680 115° Southeast 561 646 35,000  Level FlightAware ADS-B
Thu 05:44:52 AM 48.0440 -4.5480 115° Southeast 561 646 35,000  Level FlightAware ADS-B
Thu 05:45:28 AM 48.0040 -4.4220 115° Southeast 561 646 35,000  Level FlightAware ADS-B
Thu 05:46:04 AM 47.9650 -4.2960 115° Southeast 562 647 35,000  Level FlightAware ADS-B
Thu 05:46:36 AM 47.9290 -4.1840 116° Southeast 562 647 35,000  Level FlightAware ADS-B
Thu 05:47:10 AM 47.8910 -4.0650 115° Southeast 563 648 35,000  Level FlightAware ADS-B
Thu 05:47:48 AM 47.8490 -3.9320 115° Southeast 564 649 35,000  Level FlightAware ADS-B
Thu 05:48:24 AM 47.8080 -3.8060 116° Southeast 563 648 35,000  Level FlightAware ADS-B
Thu 05:48:58 AM 47.7700 -3.6870 115° Southeast 563 648 35,000  Level FlightAware ADS-B
Thu 05:49:34 AM 47.7290 -3.5620 116° Southeast 563 648 35,000  Level FlightAware ADS-B
Thu 05:50:10 AM 47.6880 -3.4370 116° Southeast 564 649 35,000  Level FlightAware ADS-B
Thu 05:50:42 AM 47.6520 -3.3260 116° Southeast 563 648 35,000  Level FlightAware ADS-B
Thu 05:51:15 AM 47.6150 -3.2140 116° Southeast 563 648 35,000  Level FlightAware ADS-B
Thu 05:51:55 AM 47.5690 -3.0720 116° Southeast 563 648 35,000  Level FlightAware ADS-B
Thu 05:52:27 AM 47.5330 -2.9620 116° Southeast 563 648 35,000  Level FlightAware ADS-B
Thu 05:53:03 AM 47.4920 -2.8380 116° Southeast 563 648 35,000  Level FlightAware ADS-B
Thu 05:53:39 AM 47.4490 -2.7140 117° Southeast 562 647 35,000  Level FlightAware ADS-B
Thu 05:54:11 AM 47.4120 -2.6030 116° Southeast 564 649 35,000  Level FlightAware ADS-B
Thu 05:54:47 AM 47.3700 -2.4800 117° Southeast 564 649 35,000  Level FlightAware ADS-B
Thu 05:55:25 AM 47.3260 -2.3530 117° Southeast 566 651 35,000  Level FlightAware ADS-B
Thu 05:55:57 AM 47.2880 -2.2390 116° Southeast 565 650 35,000  Level FlightAware ADS-B
Thu 05:56:33 AM 47.2450 -2.1160 117° Southeast 566 651 35,000  Level FlightAware ADS-B
Thu 05:57:09 AM 47.2030 -1.9960 117° Southeast 565 650 35,000  Level FlightAware ADS-B
Thu 05:57:41 AM 47.1650 -1.8830 116° Southeast 567 652 35,000  Level FlightAware ADS-B
Thu 05:58:17 AM 47.1230 -1.7630 117° Southeast 567 652 35,000  Level FlightAware ADS-B
Thu 05:58:53 AM 47.0790 -1.6360 117° Southeast 568 654 35,000  Level FlightAware ADS-B
Thu 05:59:27 AM 47.0390 -1.5240 118° Southeast 568 654 35,000  Level FlightAware ADS-B
Thu 06:00:03 AM 46.9950 -1.4020 118° Southeast 567 652 35,000  Level FlightAware ADS-B
Thu 06:00:40 AM 46.9470 -1.2730 119° Southeast 565 650 35,000  Level FlightAware ADS-B
Thu 06:01:12 AM 46.9090 -1.1690 118° Southeast 562 647 35,000  Level FlightAware ADS-B
Thu 06:01:48 AM 46.8650 -1.0450 117° Southeast 557 641 35,000  Level FlightAware ADS-B
Thu 06:02:24 AM 46.8220 -0.9250 118° Southeast 551 634 35,000  Level FlightAware ADS-B
Thu 06:02:56 AM 46.7850 -0.8210 117° Southeast 548 631 35,000  Level FlightAware ADS-B
Thu 06:03:34 AM 46.7410 -0.6970 117° Southeast 543 625 35,000  Level FlightAware ADS-B
Thu 06:04:09 AM 46.7020 -0.5910 118° Southeast 539 620 35,000  Level FlightAware ADS-B
Thu 06:04:39 AM 46.6670 -0.4950 118° Southeast 536 617 35,000  Level FlightAware ADS-B
Thu 06:05:20 AM 46.6200 -0.3650 118° Southeast 532 612 35,000  Level FlightAware ADS-B
Thu 06:05:50 AM 46.5840 -0.2680 118° Southeast 529 609 35,000  Level FlightAware ADS-B
Thu 06:06:25 AM 46.5470 -0.1710 119° Southeast 527 606 35,000 75 Level FlightAware ADS-B
Thu 06:07:10 AM 46.4910 -0.0190 118° Southeast 531 611 35,100 565 Climbing FlightAware ADS-B
Thu 06:07:50 AM 46.4440 0.1070 118° Southeast 533 613 35,800 1,040 Climbing FlightAware ADS-B
Thu 06:08:25 AM 46.4160 0.2250 109° East 517 595 36,400 831 Climbing FlightAware ADS-B
Thu 06:08:55 AM 46.4020 0.3130 103° East 518 596 36,700 537 Climbing FlightAware ADS-B
Thu 06:09:32 AM 46.3840 0.4390 102° East 519 597 37,000 220 Climbing FlightAware ADS-B
Thu 06:10:17 AM 46.3620 0.5970 101° East 513 590 37,000  Level FlightAware ADS-B
Thu 06:10:47 AM 46.3500 0.6920 100° East 513 590 37,000  Level FlightAware ADS-B
Thu 06:11:22 AM 46.3290 0.8120 104° East 517 595 37,000  Level FlightAware ADS-B
Thu 06:11:55 AM 46.3040 0.9090 110° East 521 600 37,000  Level FlightAware ADS-B
Thu 06:12:32 AM 46.2660 1.0330 114° Southeast 521 600 37,000  Level FlightAware ADS-B
Thu 06:13:07 AM 46.2290 1.1500 115° Southeast 521 600 37,000  Level FlightAware ADS-B
Thu 06:13:42 AM 46.1950 1.2570 115° Southeast 520 598 37,000  Level FlightAware ADS-B
Thu 06:14:12 AM 46.1620 1.3610 115° Southeast 518 596 37,000  Level FlightAware ADS-B
Thu 06:14:55 AM 46.1200 1.4810 117° Southeast 514 592 37,000  Level FlightAware ADS-B
Thu 06:15:28 AM 46.0810 1.5900 117° Southeast 514 592 37,000  Level FlightAware ADS-B
Thu 06:16:00 AM 46.0460 1.6860 118° Southeast 514 592 37,000  Level FlightAware ADS-B
Thu 06:16:34 AM 46.0080 1.7860 119° Southeast 513 590 37,000  Level FlightAware ADS-B
Thu 06:17:11 AM 45.9660 1.8990 118° Southeast 511 588 37,000  Level FlightAware ADS-B
Thu 06:17:48 AM 45.9220 2.0120 119° Southeast 511 588 37,000  Level FlightAware ADS-B
Thu 06:18:20 AM 45.8890 2.0990 119° Southeast 511 588 37,000  Level FlightAware ADS-B
Thu 06:18:56 AM 45.8460 2.2110 119° Southeast 507 583 37,000  Level FlightAware ADS-B
Thu 06:19:33 AM 45.8050 2.3200 118° Southeast 505 581 37,000  Level FlightAware ADS-B
Thu 06:20:05 AM 45.7700 2.4110 119° Southeast 506 582 37,000  Level FlightAware ADS-B
Thu 06:20:39 AM 45.7300 2.5130 119° Southeast 504 580 37,000  Level FlightAware ADS-B
Thu 06:21:22 AM 45.6820 2.6390 119° Southeast 503 579 37,000  Level FlightAware ADS-B
Thu 06:22:06 AM 45.6320 2.7700 119° Southeast 504 580 37,000  Level FlightAware ADS-B
Thu 06:22:40 AM 45.5940 2.8660 119° Southeast 506 582 37,000  Level FlightAware ADS-B
Thu 06:23:16 AM 45.5540 2.9680 119° Southeast 508 585 37,000  Level FlightAware ADS-B
Thu 06:23:54 AM 45.5080 3.0850 119° Southeast 509 586 37,000  Level FlightAware ADS-B
Thu 06:24:28 AM 45.4710 3.1820 119° Southeast 509 586 37,000  Level FlightAware ADS-B
Thu 06:24:58 AM 45.4370 3.2670 120° Southeast 509 586 37,000  Level FlightAware ADS-B
Thu 06:25:36 AM 45.3920 3.3770 120° Southeast 507 583 37,000  Level FlightAware ADS-B
Thu 06:26:12 AM 45.3490 3.4880 119° Southeast 507 583 37,000  Level FlightAware ADS-B
Thu 06:26:46 AM 45.3090 3.5860 120° Southeast 505 581 37,000  Level FlightAware ADS-B
Thu 06:27:19 AM 45.2720 3.6810 119° Southeast 502 578 37,000  Level FlightAware ADS-B
Thu 06:27:54 AM 45.2310 3.7730 122° Southeast 501 577 37,000  Level FlightAware ADS-B
Thu 06:28:32 AM 45.1810 3.8830 123° Southeast 501 577 37,000  Level FlightAware ADS-B
Thu 06:29:06 AM 45.1380 3.9770 123° Southeast 503 579 37,000  Level FlightAware ADS-B
Thu 06:29:38 AM 45.0970 4.0650 123° Southeast 503 579 37,000  Level FlightAware ADS-B
Thu 06:30:15 AM 45.0540 4.1620 122° Southeast 500 575 37,000  Level FlightAware ADS-B
Thu 06:30:50 AM 45.0080 4.2640 123° Southeast 499 574 37,000  Level FlightAware ADS-B
Thu 06:31:27 AM 44.9630 4.3620 123° Southeast 497 572 37,000  Level FlightAware ADS-B
Thu 06:32:02 AM 44.9180 4.4600 123° Southeast 496 571 37,000  Level FlightAware ADS-B
Thu 06:32:38 AM 44.8730 4.5570 123° Southeast 496 571 37,000  Level FlightAware ADS-B
Thu 06:33:10 AM 44.8330 4.6440 123° Southeast 497 572 37,000  Level FlightAware ADS-B
Thu 06:33:48 AM 44.7850 4.7470 123° Southeast 498 573 37,000  Level FlightAware ADS-B
Thu 06:34:20 AM 44.7450 4.8340 123° Southeast 499 574 37,000  Level FlightAware ADS-B
Thu 06:34:56 AM 44.6990 4.9320 123° Southeast 499 574 37,000  Level FlightAware ADS-B
Thu 06:35:32 AM 44.6540 5.0290 123° Southeast 498 573 37,000  Level FlightAware ADS-B
Thu 06:36:08 AM 44.6090 5.1230 124° Southeast 498 573 37,000  Level FlightAware ADS-B
Thu 06:36:38 AM 44.5700 5.2070 123° Southeast 498 573 37,000  Level FlightAware ADS-B
Thu 06:37:14 AM 44.5250 5.3040 123° Southeast 498 573 37,000  Level FlightAware ADS-B
Thu 06:37:58 AM 44.4700 5.4190 124° Southeast 497 572 37,000  Level FlightAware ADS-B
Thu 06:38:34 AM 44.4230 5.5180 124° Southeast 497 572 37,000  Level FlightAware ADS-B
Thu 06:39:10 AM 44.3810 5.6070 123° Southeast 497 572 37,000  Level FlightAware ADS-B
Thu 06:39:42 AM 44.3390 5.6920 125° Southeast 496 571 37,000  Level FlightAware ADS-B
Thu 06:40:16 AM 44.2970 5.7820 123° Southeast 496 571 37,000  Level FlightAware ADS-B
Thu 06:40:54 AM 44.2500 5.8860 122° Southeast 496 571 37,000  Level FlightAware ADS-B
Thu 06:41:28 AM 44.2100 5.9790 121° Southeast 494 568 37,000  Level FlightAware ADS-B
Thu 06:42:12 AM 44.1560 6.1040 121° Southeast 492 566 37,000  Level FlightAware ADS-B
Thu 06:42:46 AM 44.1170 6.1900 122° Southeast 491 565 37,000  Level FlightAware ADS-B
Thu 06:43:22 AM 44.0740 6.2860 122° Southeast 490 564 37,000  Level FlightAware ADS-B
Thu 06:43:54 AM 44.0330 6.3800 121° Southeast 490 564 37,000  Level FlightAware ADS-B
Thu 06:44:31 AM 43.9890 6.4780 122° Southeast 489 563 37,000  Level FlightAware ADS-B
Thu 06:45:04 AM 43.9500 6.5630 122° Southeast 490 564 37,000  Level FlightAware ADS-B
Thu 06:45:40 AM 43.9070 6.6590 122° Southeast 488 562 37,000  Level FlightAware ADS-B
Thu 06:46:10 AM 43.8720 6.7380 122° Southeast 486 559 37,000  Level FlightAware ADS-B
Thu 06:46:53 AM 43.8200 6.8510 123° Southeast 483 556 37,000  Level FlightAware ADS-B
Thu 06:47:25 AM 43.7820 6.9350 122° Southeast 480 552 37,000  Level FlightAware ADS-B
Thu 06:48:02 AM 43.7420 7.0220 122° Southeast 477 549 37,000  Level FlightAware ADS-B
Thu 06:48:33 AM 43.7030 7.1070 122° Southeast 475 547 37,000  Level FlightAware ADS-B
Thu 06:49:07 AM 43.6640 7.1940 122° Southeast 473 544 37,000  Level FlightAware ADS-B
Thu 06:49:46 AM 43.6160 7.2960 123° Southeast 473 544 37,000  Level FlightAware ADS-B
Thu 06:50:15 AM 43.5820 7.3700 122° Southeast 474 545 37,000  Level FlightAware ADS-B
Thu 06:50:47 AM 43.5440 7.4510 123° Southeast 475 547 37,000  Level FlightAware ADS-B
Thu 06:51:23 AM 43.5030 7.5410 122° Southeast 477 549 37,000  Level FlightAware ADS-B
Thu 06:52:00 AM 43.4580 7.6380 123° Southeast 477 549 37,000  Level FlightAware ADS-B
Thu 06:52:36 AM 43.4150 7.7300 123° Southeast 479 551 37,000  Level FlightAware ADS-B
Thu 06:53:08 AM 43.3760 7.8150 122° Southeast 480 552 37,000  Level FlightAware ADS-B
Thu 06:53:45 AM 43.3320 7.9070 123° Southeast 479 551 37,000  Level FlightAware ADS-B
Thu 06:54:20 AM 43.2890 7.9990 123° Southeast 480 552 37,000  Level FlightAware ADS-B
Thu 06:54:53 AM 43.2490 8.0830 123° Southeast 479 551 37,000  Level FlightAware ADS-B
Thu 06:55:29 AM 43.2050 8.1740 124° Southeast 480 552 37,000  Level FlightAware ADS-B
Thu 06:56:04 AM 43.1620 8.2640 123° Southeast 481 554 37,000  Level FlightAware ADS-B
Thu 06:56:37 AM 43.1220 8.3470 123° Southeast 482 555 37,000  Level FlightAware ADS-B
Thu 06:57:12 AM 43.0780 8.4360 124° Southeast 485 558 37,000  Level FlightAware ADS-B
Thu 06:57:51 AM 43.0290 8.5320 125° Southeast 486 559 37,000  Level FlightAware ADS-B
Thu 06:58:22 AM 42.9900 8.6100 124° Southeast 486 559 37,000  Level FlightAware ADS-B
Thu 06:58:59 AM 42.9420 8.7040 125° Southeast 487 560 37,000  Level FlightAware ADS-B
Thu 06:59:31 AM 42.9010 8.7850 125° Southeast 488 562 37,000  Level FlightAware ADS-B
Thu 07:00:05 AM 42.8580 8.8710 124° Southeast 491 565 37,000  Level FlightAware ADS-B
Thu 07:00:40 AM 42.8140 8.9610 124° Southeast 490 564 37,000  Level FlightAware ADS-B
Thu 07:01:20 AM 42.7630 9.0610 125° Southeast 491 565 37,000  Level FlightAware ADS-B
Thu 07:01:55 AM 42.7170 9.1520 125° Southeast 486 559 37,000  Level FlightAware ADS-B
Thu 07:02:25 AM 42.6790 9.2280 124° Southeast 483 556 37,000  Level FlightAware ADS-B
Thu 07:03:00 AM 42.6350 9.3140 125° Southeast 486 559 37,000  Level FlightAware ADS-B
Thu 07:03:40 AM 42.5830 9.4150 125° Southeast 478 550 37,000  Level FlightAware ADS-B
Thu 07:04:16 AM 42.5370 9.5010 126° Southeast 477 549 37,000  Level FlightAware ADS-B
Thu 07:04:46 AM 42.4970 9.5780 125° Southeast 479 551 37,000  Level FlightAware ADS-B
Thu 07:05:32 AM 42.4360 9.6930 126° Southeast 481 554 37,000  Level FlightAware ADS-B
Thu 07:06:06 AM 42.3910 9.7760 126° Southeast 480 552 37,000  Level FlightAware ADS-B
Thu 07:06:42 AM 42.3440 9.8630 126° Southeast 480 552 37,000  Level FlightAware ADS-B
Thu 07:07:18 AM 42.3000 9.9530 123° Southeast 485 558 37,000  Level FlightAware ADS-B
Thu 07:07:48 AM 42.2640 10.0300 122° Southeast 488 562 37,000  Level FlightAware ADS-B
Thu 07:08:26 AM 42.2200 10.1270 121° Southeast 490 564 37,000  Level FlightAware ADS-B
Thu 07:09:02 AM 42.1770 10.2240 121° Southeast 491 565 37,000  Level FlightAware ADS-B
Thu 07:09:44 AM 42.1290 10.3320 121° Southeast 493 567 37,000  Level FlightAware ADS-B
Thu 07:10:20 AM 42.0860 10.4300 121° Southeast 496 571 37,000  Level FlightAware ADS-B
Thu 07:10:56 AM 42.0440 10.5220 122° Southeast 498 573 37,000  Level FlightAware ADS-B
Thu 07:11:24 AM 42.0210 10.5760 120° Southeast 498 573 37,000  Level FlightAware ADS-B
Thu 07:12:04 AM 41.9630 10.7030 122° Southeast 499 574 37,000  Level FlightAware ADS-B
Thu 07:12:40 AM 41.9200 10.8010 121° Southeast 500 575 37,000  Level FlightAware ADS-B
Thu 07:13:13 AM 41.8810 10.8860 122° Southeast 502 578 37,000  Level FlightAware ADS-B
Thu 07:13:49 AM 41.8380 10.9820 121° Southeast 503 579 37,000  Level FlightAware ADS-B
Thu 07:14:24 AM 41.7950 11.0780 121° Southeast 504 580 37,000  Level FlightAware ADS-B
Thu 07:15:00 AM 41.7500 11.1740 122° Southeast 506 582 37,000  Level FlightAware ADS-B
Thu 07:15:32 AM 41.7120 11.2570 122° Southeast 508 585 37,000  Level FlightAware ADS-B
Thu 07:16:08 AM 41.6670 11.3560 121° Southeast 509 586 37,000  Level FlightAware ADS-B
Thu 07:16:44 AM 41.6220 11.4530 122° Southeast 511 588 37,000  Level FlightAware ADS-B
Thu 07:17:16 AM 41.5830 11.5390 121° Southeast 513 590 37,000  Level FlightAware ADS-B
Thu 07:17:54 AM 41.5350 11.6410 122° Southeast 514 592 37,000  Level FlightAware ADS-B
Thu 07:18:30 AM 41.4910 11.7380 121° Southeast 515 593 37,000  Level FlightAware ADS-B
Thu 07:19:02 AM 41.4490 11.8250 123° Southeast 516 594 37,000  Level FlightAware ADS-B
Thu 07:19:38 AM 41.4060 11.9190 121° Southeast 516 594 37,000  Level FlightAware ADS-B
Thu 07:20:14 AM 41.3610 12.0160 122° Southeast 516 594 37,000  Level FlightAware ADS-B
Thu 07:20:46 AM 41.3190 12.1020 123° Southeast 516 594 37,000  Level FlightAware ADS-B
Thu 07:21:18 AM 41.2780 12.1910 121° Southeast 514 592 37,000  Level FlightAware ADS-B
Thu 07:21:58 AM 41.2280 12.2970 122° Southeast 511 588 37,000  Level FlightAware ADS-B
Thu 07:22:34 AM 41.1830 12.3920 122° Southeast 509 586 37,000  Level FlightAware ADS-B
Thu 07:23:10 AM 41.1390 12.4840 122° Southeast 506 582 37,000  Level FlightAware ADS-B
Thu 07:23:50 AM 41.0890 12.5890 122° Southeast 505 581 37,000  Level FlightAware ADS-B
Thu 07:24:26 AM 41.0430 12.6860 122° Southeast 503 579 37,000  Level FlightAware ADS-B
Thu 07:25:00 AM 41.0010 12.7740 122° Southeast 502 578 37,000  Level FlightAware ADS-B
Thu 07:25:32 AM 40.9620 12.8540 123° Southeast 501 577 37,000  Level FlightAware ADS-B
Thu 07:26:12 AM 40.9140 12.9630 120° Southeast 508 585 37,000  Level FlightAware ADS-B
Thu 07:26:45 AM 40.8870 13.0600 110° East 515 593 37,000  Level FlightAware ADS-B
Thu 07:27:20 AM 40.8560 13.1620 112° Southeast 514 592 37,000  Level FlightAware ADS-B
Thu 07:27:56 AM 40.8140 13.2610 119° Southeast 517 595 37,000  Level FlightAware ADS-B
Thu 07:28:28 AM 40.7760 13.3490 120° Southeast 518 596 37,000  Level FlightAware ADS-B
Thu 07:29:06 AM 40.7320 13.4470 121° Southeast 519 597 37,000  Level FlightAware ADS-B
Thu 07:29:42 AM 40.6850 13.5500 121° Southeast 520 598 37,000  Level FlightAware ADS-B
Thu 07:30:18 AM 40.6420 13.6480 120° Southeast 519 597 37,000  Level FlightAware ADS-B
Thu 07:30:50 AM 40.6020 13.7350 121° Southeast 519 597 37,000  Level FlightAware ADS-B
Thu 07:31:26 AM 40.5580 13.8320 121° Southeast 518 596 37,000  Level FlightAware ADS-B
Thu 07:32:00 AM 40.5160 13.9240 121° Southeast 518 596 37,000  Level FlightAware ADS-B
Thu 07:32:38 AM 40.4690 14.0270 121° Southeast 518 596 37,000  Level FlightAware ADS-B
Thu 07:33:10 AM 40.4290 14.1130 121° Southeast 519 597 37,000  Level FlightAware ADS-B
Thu 07:33:46 AM 40.3850 14.2100 121° Southeast 518 596 37,000  Level FlightAware ADS-B
Thu 07:34:22 AM 40.3400 14.3060 122° Southeast 518 596 37,000  Level FlightAware ADS-B
Thu 07:34:56 AM 40.2980 14.3970 121° Southeast 518 596 37,000  Level FlightAware ADS-B
Thu 07:35:30 AM 40.2560 14.4880 121° Southeast 519 597 37,000  Level FlightAware ADS-B
Thu 07:36:06 AM 40.2110 14.5850 121° Southeast 519 597 37,000  Level FlightAware ADS-B
Thu 07:36:42 AM 40.1660 14.6790 122° Southeast 520 598 37,000  Level FlightAware ADS-B
Thu 07:37:14 AM 40.1250 14.7670 121° Southeast 520 598 37,000  Level FlightAware ADS-B
Thu 07:37:52 AM 40.0770 14.8690 122° Southeast 520 598 37,000  Level FlightAware ADS-B
Thu 07:38:26 AM 40.0350 14.9600 121° Southeast 519 597 37,000  Level FlightAware ADS-B
Thu 07:38:58 AM 39.9940 15.0450 122° Southeast 520 598 37,000  Level FlightAware ADS-B
Thu 07:39:34 AM 39.9480 15.1410 122° Southeast 520 598 37,000  Level FlightAware ADS-B
Thu 07:40:10 AM 39.9020 15.2370 122° Southeast 520 598 37,000  Level FlightAware ADS-B
Thu 07:40:48 AM 39.8550 15.3380 121° Southeast 519 597 37,000  Level FlightAware ADS-B
Thu 07:41:20 AM 39.8130 15.4230 123° Southeast 518 596 37,000  Level FlightAware ADS-B
Thu 07:41:56 AM 39.7720 15.5210 119° Southeast 521 600 37,000  Level FlightAware ADS-B
Thu 07:42:30 AM 39.7370 15.6170 115° Southeast 522 601 37,000  Level FlightAware ADS-B
Thu 07:43:08 AM 39.6990 15.7260 114° Southeast 522 601 37,000  Level FlightAware ADS-B
Thu 07:43:40 AM 39.6690 15.8140 114° Southeast 521 600 37,000  Level FlightAware ADS-B
Thu 07:44:16 AM 39.6320 15.9200 114° Southeast 521 600 37,000  Level FlightAware ADS-B
Thu 07:44:50 AM 39.5990 16.0170 114° Southeast 522 601 37,000  Level FlightAware ADS-B
Thu 07:45:28 AM 39.5620 16.1260 114° Southeast 524 603 37,000  Level FlightAware ADS-B
Thu 07:46:00 AM 39.5310 16.2150 114° Southeast 524 603 37,000  Level FlightAware ADS-B
Thu 07:46:36 AM 39.4950 16.3180 114° Southeast 525 604 37,000  Level FlightAware ADS-B
Thu 07:47:12 AM 39.4590 16.4210 114° Southeast 527 606 37,000  Level FlightAware ADS-B
Thu 07:47:48 AM 39.4220 16.5270 114° Southeast 527 606 37,000  Level FlightAware ADS-B
Thu 07:48:18 AM 39.3920 16.6130 114° Southeast 528 608 37,000  Level FlightAware ADS-B
Thu 07:48:52 AM 39.3590 16.7080 114° Southeast 528 608 37,000  Level FlightAware ADS-B
Thu 07:49:33 AM 39.3160 16.8260 115° Southeast 528 608 37,000  Level FlightAware ADS-B
Thu 07:50:04 AM 39.2840 16.9180 114° Southeast 528 608 37,000  Level FlightAware ADS-B
Thu 07:50:41 AM 39.2500 17.0150 114° Southeast 528 608 37,000  Level FlightAware ADS-B
Thu 07:51:16 AM 39.2110 17.1240 115° Southeast 529 609 37,000  Level FlightAware ADS-B
Thu 07:51:50 AM 39.1750 17.2210 116° Southeast 530 610 37,000  Level FlightAware ADS-B
Thu 07:52:28 AM 39.1360 17.3300 115° Southeast 531 611 37,000  Level FlightAware ADS-B
Thu 07:53:00 AM 39.1040 17.4190 115° Southeast 531 611 37,000  Level FlightAware ADS-B
Thu 07:53:36 AM 39.0670 17.5220 115° Southeast 530 610 37,000  Level FlightAware ADS-B
Thu 07:54:12 AM 39.0290 17.6270 115° Southeast 528 608 37,000  Level FlightAware ADS-B
Thu 07:54:44 AM 38.9960 17.7180 115° Southeast 527 606 37,000  Level FlightAware ADS-B
Thu 07:55:22 AM 38.9570 17.8250 115° Southeast 525 604 37,000  Level FlightAware ADS-B
Thu 07:55:58 AM 38.9190 17.9270 116° Southeast 524 603 37,000  Level FlightAware ADS-B
Thu 07:56:30 AM 38.8860 18.0170 115° Southeast 523 602 37,000  Level FlightAware ADS-B
Thu 07:57:06 AM 38.8490 18.1180 115° Southeast 523 602 37,000  Level FlightAware ADS-B
Thu 07:57:38 AM 38.8160 18.2080 115° Southeast 523 602 37,000  Level FlightAware ADS-B
Thu 07:58:14 AM 38.7790 18.3090 115° Southeast 524 603 37,000  Level FlightAware ADS-B
Thu 07:58:50 AM 38.7410 18.4090 116° Southeast 525 604 37,000  Level FlightAware ADS-B
Thu 07:59:24 AM 38.7060 18.5050 115° Southeast 526 605 37,000  Level FlightAware ADS-B
Thu 08:00:00 AM 38.6680 18.6060 116° Southeast 526 605 37,000  Level FlightAware ADS-B
Thu 08:00:36 AM 38.6290 18.7070 116° Southeast 526 605 37,000  Level FlightAware ADS-B
Thu 08:01:10 AM 38.5930 18.8020 116° Southeast 526 605 37,000  Level FlightAware ADS-B
Thu 08:01:40 AM 38.5630 18.8830 115° Southeast 527 606 37,000  Level FlightAware ADS-B
Thu 08:02:33 AM 38.5410 18.9390 117° Southeast 526 605 37,000  Level FlightAware ADS-B
Thu 08:03:10 AM 38.5010 19.0630 112° Southeast 529 609 37,000  Level FlightAware ADS-B
Thu 08:03:52 AM 38.4520 19.2500 108° East 531 611 37,000  Level FlightAware ADS-B
Thu 08:04:25 AM 38.4280 19.3420 108° East 532 612 37,000  Level FlightAware ADS-B
Thu 08:05:06 AM 38.3960 19.4610 109° East 532 612 37,000  Level FlightAware ADS-B
Thu 08:05:42 AM 38.3660 19.5760 108° East 532 612 37,000  Level FlightAware ADS-B
Thu 08:06:14 AM 38.3420 19.6650 109° East 532 612 37,000  Level FlightAware ADS-B
Thu 08:06:56 AM 38.3070 19.7960 109° East 532 612 37,000  Level FlightAware ADS-B
Thu 08:07:37 AM 38.2740 19.9170 109° East 533 613 37,000  Level FlightAware ADS-B
Thu 08:08:09 AM 38.2490 20.0090 109° East 533 613 37,000  Level FlightAware ADS-B
Thu 08:08:42 AM 38.2220 20.1100 109° East 534 615 37,000  Level FlightAware ADS-B
Thu 08:09:14 AM 38.1970 20.1990 110° East 534 615 37,000  Level FlightAware ADS-B
Thu 08:10:03 AM 38.1640 20.3220 109° East 534 615 37,000  Level FlightAware ADS-B
Thu 08:10:39 AM 38.1390 20.4130 109° East 534 615 37,000  Level FlightAware ADS-B
Thu 08:11:15 AM 38.1140 20.5040 109° East 534 615 37,000  Level FlightAware ADS-B
Thu 08:11:54 AM 38.0880 20.6030 108° East 534 615 37,000  Level FlightAware ADS-B
Thu 08:12:15 AM 38.0250 20.7360 121° Southeast 37,000  Level FlightAware ADS-B
Thu 08:12:47 AM 37.9960 20.8150 115° Southeast 530 610 37,000  Level FlightAware ADS-B
Thu 08:13:25 AM 37.9490 20.9380 116° Southeast 530 610 37,000  Level FlightAware ADS-B
Thu 08:14:02 AM 37.9080 21.0460 116° Southeast 530 610 37,000  Level FlightAware ADS-B
Thu 08:14:37 AM 37.8760 21.1320 115° Southeast 530 610 37,000  Level FlightAware ADS-B
Thu 08:15:08 AM 37.8370 21.2310 116° Southeast 529 609 37,000  Level FlightAware ADS-B
Thu 08:15:57 AM 37.7920 21.3540 115° Southeast 529 609 37,000  Level FlightAware ADS-B
Thu 08:16:55 AM 37.7260 21.5170 117° Southeast 526 605 37,000  Level FlightAware ADS-B
Thu 08:17:35 AM 37.6910 21.6120 115° Southeast 526 605 37,000  Level FlightAware ADS-B
Thu 08:18:14 AM 37.6390 21.7440 116° Southeast 528 608 37,000  Level FlightAware ADS-B
Thu 08:18:47 AM 37.6020 21.8380 116° Southeast 528 608 37,000  Level FlightAware ADS-B
Thu 08:19:20 AM 37.5700 21.9200 116° Southeast 523 602 37,000  Level FlightAware ADS-B
Thu 08:20:01 AM 37.5310 22.0200 116° Southeast 522 601 37,000  Level FlightAware ADS-B
Thu 08:20:37 AM 37.5000 22.1050 115° Southeast 522 601 37,000  Level FlightAware ADS-B
Thu 08:21:18 AM 37.4480 22.2280 118° Southeast 521 600 37,000  Level FlightAware ADS-B
Thu 08:21:57 AM 37.4000 22.3570 115° Southeast 523 602 37,000  Level FlightAware ADS-B
Thu 08:22:27 AM 37.3750 22.4390 111° Southeast 524 603 37,000  Level FlightAware ADS-B
Thu 08:23:07 AM 37.3480 22.5370 109° East 524 603 37,000  Level FlightAware ADS-B
Thu 08:23:39 AM 37.3250 22.6110 111° Southeast 522 601 37,000  Level FlightAware ADS-B
Thu 08:24:15 AM 37.2840 22.7520 110° East 520 598 37,000  Level FlightAware ADS-B
Thu 08:24:53 AM 37.2530 22.8570 110° East 520 598 37,000  Level FlightAware ADS-B
Thu 08:25:30 AM 37.2220 22.9620 110° East 520 598 37,000  Level FlightAware ADS-B
Thu 08:26:02 AM 37.1950 23.0520 111° Southeast 520 598 37,000  Level FlightAware ADS-B
Thu 08:26:37 AM 37.1650 23.1540 110° East 520 598 37,000  Level FlightAware ADS-B
Thu 08:27:13 AM 37.1350 23.2530 111° Southeast 521 600 37,000  Level FlightAware ADS-B
Thu 08:27:49 AM 37.1050 23.3550 110° East 522 601 37,000  Level FlightAware ADS-B
Thu 08:28:23 AM 37.0750 23.4540 111° Southeast 522 601 37,000  Level FlightAware ADS-B
Thu 08:28:55 AM 37.0480 23.5440 111° Southeast 522 601 37,000  Level FlightAware ADS-B
Thu 08:29:31 AM 37.0170 23.6460 111° Southeast 522 601 37,000  Level FlightAware ADS-B
Thu 08:30:08 AM 36.9850 23.7500 111° Southeast 523 602 37,000  Level FlightAware ADS-B
Thu 08:30:44 AM 36.9540 23.8520 111° Southeast 523 602 37,000  Level FlightAware ADS-B
Thu 08:31:20 AM 36.9230 23.9540 111° Southeast 523 602 37,000  Level FlightAware ADS-B
Thu 08:31:52 AM 36.8950 24.0440 111° Southeast 523 602 37,000  Level FlightAware ADS-B
Thu 08:32:27 AM 36.8660 24.1390 111° Southeast 522 601 37,000  Level FlightAware ADS-B
Thu 08:32:58 AM 36.8380 24.2300 111° Southeast 522 601 37,000  Level FlightAware ADS-B
Thu 08:33:38 AM 36.8040 24.3390 111° Southeast 522 601 37,000  Level FlightAware ADS-B
Thu 08:34:10 AM 36.7750 24.4320 111° Southeast 522 601 37,000  Level FlightAware ADS-B
Thu 08:34:50 AM 36.7400 24.5440 111° Southeast 521 600 37,000  Level FlightAware ADS-B
Thu 08:35:22 AM 36.7080 24.6310 115° Southeast 519 597 37,000  Level FlightAware ADS-B
Thu 08:35:58 AM 36.6720 24.7290 115° Southeast 519 597 37,000  Level FlightAware ADS-B
Thu 08:36:32 AM 36.6380 24.8210 115° Southeast 519 597 37,000  Level FlightAware ADS-B
Thu 08:37:04 AM 36.6060 24.9080 115° Southeast 518 596 37,000  Level FlightAware ADS-B
Thu 08:37:44 AM 36.5660 25.0160 115° Southeast 518 596 37,000  Level FlightAware ADS-B
Thu 08:38:16 AM 36.5340 25.1030 115° Southeast 518 596 37,000  Level FlightAware ADS-B
Thu 08:38:52 AM 36.4990 25.2000 114° Southeast 518 596 37,000  Level FlightAware ADS-B
Thu 08:39:28 AM 36.4630 25.2980 115° Southeast 519 597 37,000  Level FlightAware ADS-B
Thu 08:40:04 AM 36.4270 25.3950 115° Southeast 519 597 37,000  Level FlightAware ADS-B
Thu 08:40:38 AM 36.3930 25.4870 115° Southeast 518 596 37,000  Level FlightAware ADS-B
Thu 08:41:15 AM 36.3570 25.5840 115° Southeast 518 596 37,000  Level FlightAware ADS-B
Thu 08:41:46 AM 36.3250 25.6700 115° Southeast 517 595 37,000  Level FlightAware ADS-B
Thu 08:42:22 AM 36.2880 25.7670 115° Southeast 518 596 37,000  Level FlightAware ADS-B
Thu 08:43:00 AM 36.2490 25.8700 115° Southeast 519 597 37,000  Level FlightAware ADS-B
Thu 08:43:32 AM 36.2170 25.9560 115° Southeast 519 597 37,000  Level FlightAware ADS-B
Thu 08:44:08 AM 36.1800 26.0530 115° Southeast 519 597 37,000  Level FlightAware ADS-B
Thu 08:44:40 AM 36.1480 26.1390 115° Southeast 520 598 37,000  Level FlightAware ADS-B
Thu 08:45:17 AM 36.1100 26.2360 116° Southeast 520 598 37,000  Level FlightAware ADS-B
Thu 08:45:52 AM 36.0730 26.3350 115° Southeast 519 597 37,000  Level FlightAware ADS-B
Thu 08:46:28 AM 36.0370 26.4290 115° Southeast 519 597 37,000  Level FlightAware ADS-B
Thu 08:47:02 AM 36.0020 26.5200 115° Southeast 519 597 37,000  Level FlightAware ADS-B
Thu 08:47:38 AM 35.9640 26.6160 116° Southeast 520 598 37,000  Level FlightAware ADS-B
Thu 08:48:14 AM 35.9270 26.7130 115° Southeast 520 598 37,000  Level FlightAware ADS-B
Thu 08:48:46 AM 35.8950 26.7960 115° Southeast 520 598 37,000  Level FlightAware ADS-B
Thu 08:49:21 AM 35.8610 26.8810 116° Southeast 521 600 37,000  Level FlightAware ADS-B
Thu 08:49:59 AM 35.8190 26.9880 116° Southeast 521 600 37,000  Level FlightAware ADS-B
Thu 08:50:28 AM 35.7870 27.0710 115° Southeast 522 601 37,000  Level FlightAware ADS-B
Thu 08:51:07 AM 35.7520 27.1630 115° Southeast 522 601 37,000  Level FlightAware ADS-B
Thu 08:51:40 AM 35.7150 27.2540 117° Southeast 515 593 37,000  Level FlightAware ADS-B
Thu 08:52:52 AM 35.6360 27.4550 116° Southeast 525 604 37,000  Level FlightAware ADS-B
Thu 08:53:32 AM 35.6010 27.5470 115° Southeast 525 604 37,000  Level FlightAware ADS-B
Thu 08:54:09 AM 35.5680 27.6320 115° Southeast 525 604 37,000  Level FlightAware ADS-B
Thu 08:54:45 AM 35.5370 27.7150 115° Southeast 525 604 37,000  Level FlightAware ADS-B
Thu 08:55:21 AM 35.5060 27.7980 115° Southeast 525 604 37,000  Level FlightAware ADS-B
Thu 08:56:16 AM 35.4240 27.9880 118° Southeast 523 602 37,000  Level FlightAware ADS-B
Thu 08:56:50 AM 35.3940 28.0660 115° Southeast 523 602 37,000  Level FlightAware ADS-B
Thu 08:57:26 AM 35.3400 28.1920 118° Southeast 527 606 37,000  Level FlightAware ADS-B
Thu 08:58:00 AM 35.3030 28.2830 116° Southeast 528 608 37,000  Level FlightAware ADS-B
Thu 08:58:31 AM 35.2700 28.3650 116° Southeast 528 608 37,000  Level FlightAware ADS-B
Thu 08:59:11 AM 35.2260 28.4720 117° Southeast 527 606 37,000  Level FlightAware ADS-B
Thu 08:59:47 AM 35.1870 28.5680 116° Southeast 526 605 37,000  Level FlightAware ADS-B
Thu 09:00:20 AM 35.1510 28.6530 117° Southeast 523 602 37,000  Level FlightAware ADS-B
Thu 09:00:51 AM 35.1180 28.7320 117° Southeast 522 601 37,000  Level FlightAware ADS-B
Thu 09:01:37 AM 35.0750 28.8390 116° Southeast 522 601 37,000  Level FlightAware ADS-B
Thu 09:02:12 AM 35.0300 28.9440 118° Southeast 521 600 37,000  Level FlightAware ADS-B
Thu 09:02:42 AM 34.9950 29.0260 118° Southeast 521 600 37,000  Level FlightAware ADS-B
Thu 09:03:29 AM 34.9540 29.1280 116° Southeast 521 600 37,000  Level FlightAware ADS-B
Thu 09:04:05 AM 34.9220 29.2090 116° Southeast 521 600 37,000  Level FlightAware ADS-B
Thu 09:04:38 AM 34.8730 29.3200 118° Southeast 835 961 37,000  Level FlightAware ADS-B
Thu 09:05:30 AM 34.8190 29.4510 117° Southeast 519 597 37,000  Level FlightAware ADS-B
Thu 09:06:04 AM 34.7730 29.5560 118° Southeast 522 601 37,000  Level FlightAware ADS-B
Thu 09:06:35 AM 34.7410 29.6310 117° Southeast 522 601 37,000  Level FlightAware ADS-B
Thu 09:07:15 AM 34.6940 29.7410 117° Southeast 522 601 37,000  Level FlightAware ADS-B
Thu 09:07:49 AM 34.6550 29.8280 119° Southeast 520 598 37,000  Level FlightAware ADS-B
Thu 09:08:15 AM 34.6270 29.8860 120° Southeast 519 597 37,000  Level FlightAware ADS-B
Thu 09:08:55 AM 34.5860 29.9720 120° Southeast 519 597 37,000  Level FlightAware ADS-B
Thu 09:09:41 AM 34.5210 30.1070 120° Southeast 519 597 37,000  Level FlightAware ADS-B
Thu 09:10:11 AM 34.4830 30.1850 121° Southeast 518 596 37,000  Level FlightAware ADS-B
Thu 09:10:47 AM 34.4420 30.2740 119° Southeast 518 596 37,000  Level FlightAware ADS-B
Thu 09:11:22 AM 34.3980 30.3670 120° Southeast 520 598 37,000  Level FlightAware ADS-B
Thu 09:11:56 AM 34.3670 30.4300 121° Southeast 519 597 37,000  Level FlightAware ADS-B
Thu 09:12:32 AM 34.3140 30.5430 120° Southeast 519 597 37,000  Level FlightAware ADS-B
Thu 09:13:08 AM 34.2710 30.6310 121° Southeast 520 598 37,000  Level FlightAware ADS-B
Thu 09:13:43 AM 34.2300 30.7160 120° Southeast 521 600 37,000  Level FlightAware ADS-B
Thu 09:14:19 AM 34.1870 30.8040 121° Southeast 520 598 37,000  Level FlightAware ADS-B
Thu 09:14:49 AM 34.1480 30.8850 120° Southeast 518 596 37,000  Level FlightAware ADS-B
Thu 09:15:30 AM 34.0980 30.9880 120° Southeast 518 596 37,000  Level FlightAware ADS-B
Thu 09:16:05 AM 34.0540 31.0780 121° Southeast 520 598 37,000  Level FlightAware ADS-B
Thu 09:16:41 AM 34.0110 31.1660 121° Southeast 520 598 37,000  Level FlightAware ADS-B
Thu 09:17:15 AM 33.9670 31.2570 120° Southeast 521 600 37,000  Level FlightAware ADS-B
Thu 09:17:51 AM 33.9250 31.3420 121° Southeast 521 600 37,000  Level FlightAware ADS-B
Thu 09:18:31 AM 33.8740 31.4450 121° Southeast 521 600 37,000  Level FlightAware ADS-B
Thu 09:19:02 AM 33.8370 31.5210 120° Southeast 522 601 37,000  Level FlightAware ADS-B
Thu 09:19:42 AM 33.7870 31.6220 121° Southeast 522 601 37,000  Level FlightAware ADS-B
Thu 09:20:18 AM 33.7420 31.7120 121° Southeast 522 601 37,000  Level FlightAware ADS-B
Thu 09:20:52 AM 33.6980 31.8000 121° Southeast 523 602 37,000  Level FlightAware ADS-B
Thu 09:21:28 AM 33.6540 31.8910 120° Southeast 523 602 37,000  Level FlightAware ADS-B
Thu 09:21:58 AM 33.6170 31.9630 122° Southeast 527 606 37,000  Level FlightAware ADS-B
Thu 09:22:34 AM 33.5720 32.0540 121° Southeast 527 606 37,000  Level FlightAware ADS-B
Thu 09:23:17 AM 33.5190 32.1590 121° Southeast 529 609 37,000  Level FlightAware ADS-B
Thu 09:23:51 AM 33.4760 32.2450 121° Southeast 529 609 37,000  Level FlightAware ADS-B
Thu 09:24:27 AM 33.4320 32.3300 122° Southeast 530 610 37,000 -150 Level FlightAware ADS-B
Thu 09:25:11 AM 33.3720 32.4500 121° Southeast 525 604 36,800 -608 Descending FlightAware ADS-B
Thu 09:25:46 AM 33.3310 32.5320 121° Southeast 525 604 36,200 -1,286 Descending FlightAware ADS-B
Thu 09:26:21 AM 33.2860 32.6190 122° Southeast 528 608 35,300 -1,565 Descending FlightAware ADS-B
Thu 09:26:55 AM 33.2400 32.7090 121° Southeast 529 609 34,400 -1,739 Descending FlightAware ADS-B
Thu 09:27:30 AM 33.2010 32.7860 121° Southeast 520 598 33,300 -1,050 Descending FlightAware ADS-B
Thu 09:28:15 AM 33.1520 32.8870 120° Southeast 514 592 33,000 -2,338 Descending FlightAware ADS-B
Thu 09:28:47 AM 33.1070 32.9680 124° Southeast 499 574 30,300 -3,857 Descending FlightAware ADS-B
Thu 09:29:25 AM 33.0560 33.0700 121° Southeast 487 560 28,500 -2,314 Descending FlightAware ADS-B
Thu 09:29:57 AM 33.0240 33.1290 123° Southeast 479 551 27,600 -2,029 Descending FlightAware ADS-B
Thu 09:30:33 AM 32.9790 33.2190 121° Southeast 459 528 26,200 -2,250 Descending FlightAware ADS-B
Thu 09:31:09 AM 32.9400 33.2930 122° Southeast 449 517 24,900 -2,382 Descending FlightAware ADS-B
Thu 09:31:41 AM 32.9030 33.3640 122° Southeast 443 510 23,500 -2,492 Descending FlightAware ADS-B
Thu 09:32:14 AM 32.8670 33.4320 122° Southeast 434 499 22,200 -2,083 Descending FlightAware ADS-B
Thu 09:32:53 AM 32.8280 33.5080 121° Southeast 419 482 21,000 -1,840 Descending FlightAware ADS-B
Thu 09:33:29 AM 32.7910 33.5790 122° Southeast 406 467 19,900 -1,826 Descending FlightAware ADS-B
Thu 09:34:02 AM 32.7580 33.6430 122° Southeast 418 481 18,900 -1,826 Descending FlightAware ADS-B
Thu 09:34:38 AM 32.7200 33.7130 123° Southeast 414 476 17,800 -1,791 Descending FlightAware ADS-B
Thu 09:35:09 AM 32.6900 33.7720 121° Southeast 408 470 16,900 -1,775 Descending FlightAware ADS-B
Thu 09:35:49 AM 32.6510 33.8460 122° Southeast 404 465 15,700 -1,737 Descending FlightAware ADS-B
Thu 09:36:25 AM 32.6160 33.9140 121° Southeast 402 463 14,700 -1,775 Descending FlightAware ADS-B
Thu 09:37:00 AM 32.5800 33.9810 123° Southeast 396 456 13,600 -1,765 Descending FlightAware ADS-B
Thu 09:37:33 AM 32.5490 34.0390 122° Southeast 389 448 12,700 -1,714 Descending FlightAware ADS-B
Thu 09:38:10 AM 32.5140 34.1060 122° Southeast 384 442 11,600 -1,612 Descending FlightAware ADS-B
Thu 09:38:40 AM 32.4840 34.1580 124° Southeast 377 434 10,900 -1,075 Descending FlightAware ADS-B
Thu 09:39:17 AM 32.4420 34.2120 133° Southeast 347 399 10,400 -405 Descending FlightAware ADS-B
Thu 09:39:54 AM 32.4090 34.2510 135° Southeast 339 390 10,400  Level FlightAware ADS-B
Thu 09:40:30 AM 32.3760 34.2920 134° Southeast 339 390 10,400  Level FlightAware ADS-B
Thu 09:41:06 AM 32.3430 34.3330 134° Southeast 339 390 10,400  Level FlightAware ADS-B
Thu 09:43:00 AM 32.1846 34.6095 132° Southeast  Level FlightAware Approximate
Thu 09:44:00 AM 32.0957 34.7429 133° Southeast  Level FlightAware Approximate
Thu 09:45:00 AM 32.0000 34.8667 131° Southeast  Level FlightAware Approximate
Thu 09:46:00 AM 32.0095 34.8769 131° Southeast  Level Estimated
Thu 09:47:00 AM 32.0095 34.8769 131° Southeast  Level Estimated
Thu 09:48:00 AM 32.0095 34.8769 131° Southeast  Level Estimated
Thu 09:49:00 AM 32.0095 34.8769 131° Southeast  Level Estimated
Thu 09:50:00 AM 32.0095 34.8769 131° Southeast  Level Estimated
Thu 09:51:00 AM 32.0095 34.8769 131° Southeast  Level Estimated
Thu 09:52:00 AM 32.0095 34.8769 131° Southeast  Level Estimated
Thu 09:53:00 AM 32.0095 34.8769 131° Southeast  Level Estimated
Thu 09:54:00 AM 32.0095 34.8769 131° Southeast  Level Estimated

Login

Don't have an account? Register now (free) for customized features, flight alerts, and more!